sensor_id;sensor_type;location;lat;lon;timestamp;P1;durP1;ratioP1;P2;durP2;ratioP2
4583;SDS011;2304;47.606;12.186;2022-12-15T00:03:55;32.00;;;15.80;;
4583;SDS011;2304;47.606;12.186;2022-12-15T00:09:14;33.80;;;15.80;;
4583;SDS011;2304;47.606;12.186;2022-12-15T00:14:35;28.40;;;15.30;;
4583;SDS011;2304;47.606;12.186;2022-12-15T00:19:54;22.87;;;14.03;;
4583;SDS011;2304;47.606;12.186;2022-12-15T00:25:13;27.90;;;16.23;;
4583;SDS011;2304;47.606;12.186;2022-12-15T00:30:34;23.37;;;13.40;;
4583;SDS011;2304;47.606;12.186;2022-12-15T00:35:53;23.97;;;14.67;;
4583;SDS011;2304;47.606;12.186;2022-12-15T00:41:14;25.00;;;14.43;;
4583;SDS011;2304;47.606;12.186;2022-12-15T00:46:18;22.10;;;13.73;;
4583;SDS011;2304;47.606;12.186;2022-12-15T00:51:37;22.80;;;12.37;;
4583;SDS011;2304;47.606;12.186;2022-12-15T00:56:56;23.70;;;12.93;;
4583;SDS011;2304;47.606;12.186;2022-12-15T01:02:17;20.73;;;13.27;;
4583;SDS011;2304;47.606;12.186;2022-12-15T01:07:36;17.30;;;11.50;;
4583;SDS011;2304;47.606;12.186;2022-12-15T01:12:56;22.33;;;12.43;;
4583;SDS011;2304;47.606;12.186;2022-12-15T01:18:16;19.00;;;11.90;;
4583;SDS011;2304;47.606;12.186;2022-12-15T01:23:36;37.43;;;16.40;;
4583;SDS011;2304;47.606;12.186;2022-12-15T01:28:38;21.67;;;12.30;;
4583;SDS011;2304;47.606;12.186;2022-12-15T01:33:42;19.57;;;12.33;;
4583;SDS011;2304;47.606;12.186;2022-12-15T01:38:43;19.70;;;11.90;;
4583;SDS011;2304;47.606;12.186;2022-12-15T01:43:46;16.77;;;10.57;;
4583;SDS011;2304;47.606;12.186;2022-12-15T01:48:50;19.60;;;12.27;;
4583;SDS011;2304;47.606;12.186;2022-12-15T01:53:57;21.23;;;11.10;;
4583;SDS011;2304;47.606;12.186;2022-12-15T01:59:03;21.50;;;12.80;;
4583;SDS011;2304;47.606;12.186;2022-12-15T02:04:08;21.20;;;11.87;;
4583;SDS011;2304;47.606;12.186;2022-12-15T02:09:10;20.57;;;12.30;;
4583;SDS011;2304;47.606;12.186;2022-12-15T02:14:13;17.53;;;11.17;;
4583;SDS011;2304;47.606;12.186;2022-12-15T02:19:32;19.20;;;12.50;;
4583;SDS011;2304;47.606;12.186;2022-12-15T02:25:02;21.23;;;13.37;;
4583;SDS011;2304;47.606;12.186;2022-12-15T02:30:19;19.90;;;11.77;;
4583;SDS011;2304;47.606;12.186;2022-12-15T02:35:26;20.00;;;12.33;;
4583;SDS011;2304;47.606;12.186;2022-12-15T02:40:35;23.43;;;12.20;;
4583;SDS011;2304;47.606;12.186;2022-12-15T02:45:43;20.07;;;11.20;;
4583;SDS011;2304;47.606;12.186;2022-12-15T02:51:01;18.43;;;12.10;;
4583;SDS011;2304;47.606;12.186;2022-12-15T02:56:11;20.77;;;11.70;;
4583;SDS011;2304;47.606;12.186;2022-12-15T03:01:21;17.67;;;10.60;;
4583;SDS011;2304;47.606;12.186;2022-12-15T03:06:29;21.90;;;12.00;;
4583;SDS011;2304;47.606;12.186;2022-12-15T03:11:31;29.77;;;13.00;;
4583;SDS011;2304;47.606;12.186;2022-12-15T03:16:34;17.30;;;11.47;;
4583;SDS011;2304;47.606;12.186;2022-12-15T03:21:36;20.70;;;11.30;;
4583;SDS011;2304;47.606;12.186;2022-12-15T03:26:38;20.40;;;11.87;;
4583;SDS011;2304;47.606;12.186;2022-12-15T03:31:41;19.30;;;11.23;;
4583;SDS011;2304;47.606;12.186;2022-12-15T03:36:44;19.67;;;11.60;;
4583;SDS011;2304;47.606;12.186;2022-12-15T03:41:46;20.00;;;11.60;;
4583;SDS011;2304;47.606;12.186;2022-12-15T03:46:49;26.40;;;13.90;;
4583;SDS011;2304;47.606;12.186;2022-12-15T03:51:51;17.63;;;11.93;;
4583;SDS011;2304;47.606;12.186;2022-12-15T03:56:53;19.07;;;11.93;;
4583;SDS011;2304;47.606;12.186;2022-12-15T04:01:56;19.80;;;12.90;;
4583;SDS011;2304;47.606;12.186;2022-12-15T04:06:58;29.43;;;12.20;;
4583;SDS011;2304;47.606;12.186;2022-12-15T04:11:59;17.70;;;11.30;;
4583;SDS011;2304;47.606;12.186;2022-12-15T04:17:03;19.10;;;11.87;;
4583;SDS011;2304;47.606;12.186;2022-12-15T04:22:05;17.60;;;10.07;;
4583;SDS011;2304;47.606;12.186;2022-12-15T04:27:07;18.70;;;10.90;;
4583;SDS011;2304;47.606;12.186;2022-12-15T04:32:28;19.50;;;10.63;;
4583;SDS011;2304;47.606;12.186;2022-12-15T04:37:47;27.40;;;11.60;;
4583;SDS011;2304;47.606;12.186;2022-12-15T04:43:06;15.80;;;10.77;;
4583;SDS011;2304;47.606;12.186;2022-12-15T04:48:27;19.20;;;9.93;;
4583;SDS011;2304;47.606;12.186;2022-12-15T04:53:46;19.77;;;10.97;;
4583;SDS011;2304;47.606;12.186;2022-12-15T04:59:05;17.00;;;10.10;;
4583;SDS011;2304;47.606;12.186;2022-12-15T05:04:25;21.27;;;12.33;;
4583;SDS011;2304;47.606;12.186;2022-12-15T05:09:45;21.33;;;12.00;;
4583;SDS011;2304;47.606;12.186;2022-12-15T05:15:05;16.20;;;10.33;;
4583;SDS011;2304;47.606;12.186;2022-12-15T05:20:27;16.23;;;9.97;;
4583;SDS011;2304;47.606;12.186;2022-12-15T05:25:46;20.90;;;11.37;;
4583;SDS011;2304;47.606;12.186;2022-12-15T05:31:05;20.57;;;11.87;;
4583;SDS011;2304;47.606;12.186;2022-12-15T05:36:27;24.27;;;12.30;;
4583;SDS011;2304;47.606;12.186;2022-12-15T05:41:29;24.03;;;11.97;;
4583;SDS011;2304;47.606;12.186;2022-12-15T05:46:30;33.57;;;15.20;;
4583;SDS011;2304;47.606;12.186;2022-12-15T05:51:36;23.03;;;13.33;;
4583;SDS011;2304;47.606;12.186;2022-12-15T05:56:39;32.00;;;17.07;;
4583;SDS011;2304;47.606;12.186;2022-12-15T06:01:41;22.77;;;14.20;;
4583;SDS011;2304;47.606;12.186;2022-12-15T06:06:44;27.73;;;13.30;;
4583;SDS011;2304;47.606;12.186;2022-12-15T06:11:46;27.87;;;14.33;;
4583;SDS011;2304;47.606;12.186;2022-12-15T06:16:48;28.97;;;15.27;;
4583;SDS011;2304;47.606;12.186;2022-12-15T06:21:51;40.10;;;20.20;;
4583;SDS011;2304;47.606;12.186;2022-12-15T06:26:53;92.33;;;42.33;;
4583;SDS011;2304;47.606;12.186;2022-12-15T06:31:55;30.13;;;16.67;;
4583;SDS011;2304;47.606;12.186;2022-12-15T06:36:58;27.27;;;15.80;;
4583;SDS011;2304;47.606;12.186;2022-12-15T06:42:00;28.90;;;16.00;;
4583;SDS011;2304;47.606;12.186;2022-12-15T06:47:02;28.10;;;16.17;;
4583;SDS011;2304;47.606;12.186;2022-12-15T06:52:05;44.00;;;20.90;;
4583;SDS011;2304;47.606;12.186;2022-12-15T06:57:08;38.17;;;18.47;;
4583;SDS011;2304;47.606;12.186;2022-12-15T07:02:12;33.43;;;18.37;;
4583;SDS011;2304;47.606;12.186;2022-12-15T07:07:17;43.13;;;22.57;;
4583;SDS011;2304;47.606;12.186;2022-12-15T07:12:19;30.63;;;17.50;;
4583;SDS011;2304;47.606;12.186;2022-12-15T07:17:21;34.50;;;20.07;;
4583;SDS011;2304;47.606;12.186;2022-12-15T07:22:24;63.97;;;29.37;;
4583;SDS011;2304;47.606;12.186;2022-12-15T07:27:28;27.23;;;15.20;;
4583;SDS011;2304;47.606;12.186;2022-12-15T07:32:29;28.20;;;15.87;;
4583;SDS011;2304;47.606;12.186;2022-12-15T07:37:33;30.07;;;16.77;;
4583;SDS011;2304;47.606;12.186;2022-12-15T07:42:36;27.33;;;17.00;;
4583;SDS011;2304;47.606;12.186;2022-12-15T07:47:37;31.87;;;16.03;;
4583;SDS011;2304;47.606;12.186;2022-12-15T07:52:41;29.70;;;17.87;;
4583;SDS011;2304;47.606;12.186;2022-12-15T07:57:43;32.73;;;18.27;;
4583;SDS011;2304;47.606;12.186;2022-12-15T08:02:47;45.97;;;23.80;;
4583;SDS011;2304;47.606;12.186;2022-12-15T08:07:50;45.00;;;25.80;;
4583;SDS011;2304;47.606;12.186;2022-12-15T08:12:52;42.80;;;24.80;;
4583;SDS011;2304;47.606;12.186;2022-12-15T08:17:54;44.93;;;22.30;;
4583;SDS011;2304;47.606;12.186;2022-12-15T08:22:57;40.00;;;22.33;;
4583;SDS011;2304;47.606;12.186;2022-12-15T08:28:00;38.77;;;22.13;;
4583;SDS011;2304;47.606;12.186;2022-12-15T08:33:02;38.73;;;22.57;;
4583;SDS011;2304;47.606;12.186;2022-12-15T08:38:06;40.57;;;23.30;;
4583;SDS011;2304;47.606;12.186;2022-12-15T08:43:08;45.23;;;24.63;;
4583;SDS011;2304;47.606;12.186;2022-12-15T08:48:10;43.30;;;21.67;;
4583;SDS011;2304;47.606;12.186;2022-12-15T08:53:13;42.60;;;24.10;;
4583;SDS011;2304;47.606;12.186;2022-12-15T08:58:16;40.53;;;22.97;;
4583;SDS011;2304;47.606;12.186;2022-12-15T09:03:18;48.83;;;25.70;;
4583;SDS011;2304;47.606;12.186;2022-12-15T09:08:22;50.40;;;25.70;;
4583;SDS011;2304;47.606;12.186;2022-12-15T09:13:24;51.97;;;24.93;;
4583;SDS011;2304;47.606;12.186;2022-12-15T09:18:26;46.17;;;24.00;;
4583;SDS011;2304;47.606;12.186;2022-12-15T09:23:29;42.90;;;23.03;;
4583;SDS011;2304;47.606;12.186;2022-12-15T09:28:31;50.37;;;25.17;;
4583;SDS011;2304;47.606;12.186;2022-12-15T09:33:34;45.43;;;25.63;;
4583;SDS011;2304;47.606;12.186;2022-12-15T09:38:38;46.63;;;26.30;;
4583;SDS011;2304;47.606;12.186;2022-12-15T09:43:43;39.40;;;24.03;;
4583;SDS011;2304;47.606;12.186;2022-12-15T09:48:50;42.60;;;24.57;;
4583;SDS011;2304;47.606;12.186;2022-12-15T09:53:55;42.70;;;24.07;;
4583;SDS011;2304;47.606;12.186;2022-12-15T09:58:59;44.90;;;25.60;;
4583;SDS011;2304;47.606;12.186;2022-12-15T10:04:09;51.23;;;26.30;;
4583;SDS011;2304;47.606;12.186;2022-12-15T10:09:19;43.40;;;23.80;;
4583;SDS011;2304;47.606;12.186;2022-12-15T10:14:25;50.97;;;27.10;;
4583;SDS011;2304;47.606;12.186;2022-12-15T10:19:33;46.93;;;23.10;;
4583;SDS011;2304;47.606;12.186;2022-12-15T10:24:41;51.10;;;26.07;;
4583;SDS011;2304;47.606;12.186;2022-12-15T10:29:43;43.80;;;23.20;;
4583;SDS011;2304;47.606;12.186;2022-12-15T10:34:46;42.07;;;23.60;;
4583;SDS011;2304;47.606;12.186;2022-12-15T10:39:49;44.17;;;22.57;;
4583;SDS011;2304;47.606;12.186;2022-12-15T10:44:52;46.73;;;25.33;;
4583;SDS011;2304;47.606;12.186;2022-12-15T10:50:15;47.30;;;26.90;;
4583;SDS011;2304;47.606;12.186;2022-12-15T10:55:31;54.13;;;28.50;;
4583;SDS011;2304;47.606;12.186;2022-12-15T11:00:37;35.70;;;20.40;;
4583;SDS011;2304;47.606;12.186;2022-12-15T11:05:39;36.50;;;19.77;;
4583;SDS011;2304;47.606;12.186;2022-12-15T11:10:54;37.37;;;19.73;;
4583;SDS011;2304;47.606;12.186;2022-12-15T11:16:15;38.10;;;18.20;;
4583;SDS011;2304;47.606;12.186;2022-12-15T11:21:19;29.30;;;17.80;;
4583;SDS011;2304;47.606;12.186;2022-12-15T11:26:29;29.17;;;16.00;;
4583;SDS011;2304;47.606;12.186;2022-12-15T11:31:41;32.47;;;18.37;;
4583;SDS011;2304;47.606;12.186;2022-12-15T11:36:48;31.47;;;18.20;;
4583;SDS011;2304;47.606;12.186;2022-12-15T11:42:01;31.30;;;17.30;;
4583;SDS011;2304;47.606;12.186;2022-12-15T11:47:13;34.47;;;19.10;;
4583;SDS011;2304;47.606;12.186;2022-12-15T11:52:27;31.57;;;18.27;;
4583;SDS011;2304;47.606;12.186;2022-12-15T11:57:52;30.80;;;18.07;;
4583;SDS011;2304;47.606;12.186;2022-12-15T12:03:18;39.17;;;19.97;;
4583;SDS011;2304;47.606;12.186;2022-12-15T12:08:34;37.87;;;19.70;;
4583;SDS011;2304;47.606;12.186;2022-12-15T12:13:47;40.20;;;23.23;;
4583;SDS011;2304;47.606;12.186;2022-12-15T12:18:59;38.90;;;21.07;;
4583;SDS011;2304;47.606;12.186;2022-12-15T12:24:08;44.77;;;24.60;;
4583;SDS011;2304;47.606;12.186;2022-12-15T12:29:19;39.40;;;22.00;;
4583;SDS011;2304;47.606;12.186;2022-12-15T12:34:27;47.67;;;30.80;;
4583;SDS011;2304;47.606;12.186;2022-12-15T12:39:33;59.80;;;35.23;;
4583;SDS011;2304;47.606;12.186;2022-12-15T12:44:36;62.93;;;36.87;;
4583;SDS011;2304;47.606;12.186;2022-12-15T12:49:40;68.50;;;35.37;;
4583;SDS011;2304;47.606;12.186;2022-12-15T12:54:48;61.77;;;35.67;;
4583;SDS011;2304;47.606;12.186;2022-12-15T12:59:59;57.70;;;33.20;;
4583;SDS011;2304;47.606;12.186;2022-12-15T13:05:19;52.87;;;28.37;;
4583;SDS011;2304;47.606;12.186;2022-12-15T13:10:24;59.67;;;29.73;;
4583;SDS011;2304;47.606;12.186;2022-12-15T13:15:38;51.53;;;30.20;;
4583;SDS011;2304;47.606;12.186;2022-12-15T13:20:43;61.30;;;29.33;;
4583;SDS011;2304;47.606;12.186;2022-12-15T13:25:46;60.90;;;30.83;;
4583;SDS011;2304;47.606;12.186;2022-12-15T13:36:53;72.93;;;36.40;;
4583;SDS011;2304;47.606;12.186;2022-12-15T13:47:27;75.17;;;42.07;;
4583;SDS011;2304;47.606;12.186;2022-12-15T13:52:31;68.73;;;38.90;;
4583;SDS011;2304;47.606;12.186;2022-12-15T13:57:38;77.03;;;40.33;;
4583;SDS011;2304;47.606;12.186;2022-12-15T14:03:01;77.63;;;44.60;;
4583;SDS011;2304;47.606;12.186;2022-12-15T14:08:06;123.27;;;61.07;;
4583;SDS011;2304;47.606;12.186;2022-12-15T14:13:13;82.43;;;40.87;;
4583;SDS011;2304;47.606;12.186;2022-12-15T14:18:23;76.73;;;39.03;;
4583;SDS011;2304;47.606;12.186;2022-12-15T14:23:27;73.00;;;39.97;;
4583;SDS011;2304;47.606;12.186;2022-12-15T14:28:31;73.80;;;37.67;;
4583;SDS011;2304;47.606;12.186;2022-12-15T14:33:36;67.20;;;35.30;;
4583;SDS011;2304;47.606;12.186;2022-12-15T14:38:42;65.73;;;32.97;;
4583;SDS011;2304;47.606;12.186;2022-12-15T14:43:47;67.63;;;32.90;;
4583;SDS011;2304;47.606;12.186;2022-12-15T14:48:52;73.27;;;36.30;;
4583;SDS011;2304;47.606;12.186;2022-12-15T14:53:55;67.67;;;33.80;;
4583;SDS011;2304;47.606;12.186;2022-12-15T14:58:58;69.30;;;34.23;;
4583;SDS011;2304;47.606;12.186;2022-12-15T15:04:05;72.33;;;34.40;;
4583;SDS011;2304;47.606;12.186;2022-12-15T15:09:24;79.47;;;34.77;;
4583;SDS011;2304;47.606;12.186;2022-12-15T15:14:28;92.73;;;40.93;;
4583;SDS011;2304;47.606;12.186;2022-12-15T15:19:33;70.47;;;35.33;;
4583;SDS011;2304;47.606;12.186;2022-12-15T15:24:38;87.90;;;40.87;;
4583;SDS011;2304;47.606;12.186;2022-12-15T15:29:40;81.60;;;39.43;;
4583;SDS011;2304;47.606;12.186;2022-12-15T15:34:43;76.43;;;35.67;;
4583;SDS011;2304;47.606;12.186;2022-12-15T15:39:46;66.90;;;34.90;;
4583;SDS011;2304;47.606;12.186;2022-12-15T15:44:49;75.43;;;36.70;;
4583;SDS011;2304;47.606;12.186;2022-12-15T15:49:53;79.57;;;37.17;;
4583;SDS011;2304;47.606;12.186;2022-12-15T15:54:55;94.77;;;47.87;;
4583;SDS011;2304;47.606;12.186;2022-12-15T15:59:59;112.07;;;66.07;;
4583;SDS011;2304;47.606;12.186;2022-12-15T16:05:03;88.77;;;47.77;;
4583;SDS011;2304;47.606;12.186;2022-12-15T16:10:09;88.60;;;43.17;;
4583;SDS011;2304;47.606;12.186;2022-12-15T16:15:13;92.43;;;43.40;;
4583;SDS011;2304;47.606;12.186;2022-12-15T16:20:19;89.10;;;43.70;;
4583;SDS011;2304;47.606;12.186;2022-12-15T16:25:24;97.77;;;41.43;;
4583;SDS011;2304;47.606;12.186;2022-12-15T16:30:30;86.73;;;40.77;;
4583;SDS011;2304;47.606;12.186;2022-12-15T16:35:33;90.70;;;41.10;;
4583;SDS011;2304;47.606;12.186;2022-12-15T16:40:35;86.40;;;39.67;;
4583;SDS011;2304;47.606;12.186;2022-12-15T16:45:38;85.27;;;41.83;;
4583;SDS011;2304;47.606;12.186;2022-12-15T16:50:46;91.43;;;40.83;;
4583;SDS011;2304;47.606;12.186;2022-12-15T16:55:53;88.00;;;40.50;;
4583;SDS011;2304;47.606;12.186;2022-12-15T17:00:56;91.93;;;39.87;;
4583;SDS011;2304;47.606;12.186;2022-12-15T17:06:00;87.73;;;41.73;;
4583;SDS011;2304;47.606;12.186;2022-12-15T17:11:04;88.77;;;41.73;;
4583;SDS011;2304;47.606;12.186;2022-12-15T17:16:08;87.60;;;39.20;;
4583;SDS011;2304;47.606;12.186;2022-12-15T17:21:14;77.73;;;36.17;;
4583;SDS011;2304;47.606;12.186;2022-12-15T17:26:20;87.27;;;39.57;;
4583;SDS011;2304;47.606;12.186;2022-12-15T17:31:23;92.53;;;40.77;;
4583;SDS011;2304;47.606;12.186;2022-12-15T17:36:28;79.03;;;35.33;;
4583;SDS011;2304;47.606;12.186;2022-12-15T17:41:29;84.43;;;37.37;;
4583;SDS011;2304;47.606;12.186;2022-12-15T17:46:31;90.53;;;41.37;;
4583;SDS011;2304;47.606;12.186;2022-12-15T17:51:34;90.50;;;44.27;;
4583;SDS011;2304;47.606;12.186;2022-12-15T17:56:36;93.23;;;42.47;;
4583;SDS011;2304;47.606;12.186;2022-12-15T18:01:38;106.20;;;43.97;;
4583;SDS011;2304;47.606;12.186;2022-12-15T18:06:43;97.77;;;44.50;;
4583;SDS011;2304;47.606;12.186;2022-12-15T18:11:45;99.17;;;43.43;;
4583;SDS011;2304;47.606;12.186;2022-12-15T18:16:47;95.33;;;42.70;;
4583;SDS011;2304;47.606;12.186;2022-12-15T18:21:50;109.33;;;49.23;;
4583;SDS011;2304;47.606;12.186;2022-12-15T18:26:52;113.60;;;46.90;;
4583;SDS011;2304;47.606;12.186;2022-12-15T18:31:55;97.20;;;44.03;;
4583;SDS011;2304;47.606;12.186;2022-12-15T18:36:58;103.87;;;43.97;;
4583;SDS011;2304;47.606;12.186;2022-12-15T18:42:00;99.93;;;42.73;;
4583;SDS011;2304;47.606;12.186;2022-12-15T18:47:04;93.17;;;41.57;;
4583;SDS011;2304;47.606;12.186;2022-12-15T18:52:15;101.10;;;41.30;;
4583;SDS011;2304;47.606;12.186;2022-12-15T18:57:21;118.63;;;44.27;;
4583;SDS011;2304;47.606;12.186;2022-12-15T19:02:27;115.27;;;45.87;;
4583;SDS011;2304;47.606;12.186;2022-12-15T19:07:30;122.47;;;46.87;;
4583;SDS011;2304;47.606;12.186;2022-12-15T19:12:32;116.87;;;52.13;;
4583;SDS011;2304;47.606;12.186;2022-12-15T19:17:34;119.00;;;52.80;;
4583;SDS011;2304;47.606;12.186;2022-12-15T19:22:55;104.37;;;45.93;;
4583;SDS011;2304;47.606;12.186;2022-12-15T19:27:57;106.70;;;46.40;;
4583;SDS011;2304;47.606;12.186;2022-12-15T19:32:59;99.90;;;42.87;;
4583;SDS011;2304;47.606;12.186;2022-12-15T19:38:02;84.27;;;37.90;;
4583;SDS011;2304;47.606;12.186;2022-12-15T19:43:05;87.93;;;35.83;;
4583;SDS011;2304;47.606;12.186;2022-12-15T19:48:07;119.87;;;42.23;;
4583;SDS011;2304;47.606;12.186;2022-12-15T19:53:13;95.73;;;37.23;;
4583;SDS011;2304;47.606;12.186;2022-12-15T19:58:25;86.80;;;38.53;;
4583;SDS011;2304;47.606;12.186;2022-12-15T20:03:29;87.73;;;37.47;;
4583;SDS011;2304;47.606;12.186;2022-12-15T20:08:33;116.53;;;45.77;;
4583;SDS011;2304;47.606;12.186;2022-12-15T20:13:37;95.87;;;43.23;;
4583;SDS011;2304;47.606;12.186;2022-12-15T20:18:38;91.73;;;40.60;;
4583;SDS011;2304;47.606;12.186;2022-12-15T20:23:43;96.70;;;44.00;;
4583;SDS011;2304;47.606;12.186;2022-12-15T20:28:49;89.57;;;41.83;;
4583;SDS011;2304;47.606;12.186;2022-12-15T20:33:52;93.33;;;39.63;;
4583;SDS011;2304;47.606;12.186;2022-12-15T20:38:55;83.00;;;36.10;;
4583;SDS011;2304;47.606;12.186;2022-12-15T20:43:57;73.53;;;36.00;;
4583;SDS011;2304;47.606;12.186;2022-12-15T20:48:59;66.00;;;32.43;;
4583;SDS011;2304;47.606;12.186;2022-12-15T20:54:05;65.43;;;33.97;;
4583;SDS011;2304;47.606;12.186;2022-12-15T20:59:13;67.60;;;33.33;;
4583;SDS011;2304;47.606;12.186;2022-12-15T21:04:18;69.27;;;32.13;;
4583;SDS011;2304;47.606;12.186;2022-12-15T21:09:26;67.67;;;32.40;;
4583;SDS011;2304;47.606;12.186;2022-12-15T21:14:28;69.77;;;31.90;;
4583;SDS011;2304;47.606;12.186;2022-12-15T21:19:30;63.53;;;30.23;;
4583;SDS011;2304;47.606;12.186;2022-12-15T21:24:33;55.53;;;29.77;;
4583;SDS011;2304;47.606;12.186;2022-12-15T21:29:35;61.10;;;31.43;;
4583;SDS011;2304;47.606;12.186;2022-12-15T21:34:37;62.80;;;30.63;;
4583;SDS011;2304;47.606;12.186;2022-12-15T21:39:40;69.17;;;31.43;;
4583;SDS011;2304;47.606;12.186;2022-12-15T21:44:42;62.03;;;32.97;;
4583;SDS011;2304;47.606;12.186;2022-12-15T21:49:44;66.67;;;31.73;;
4583;SDS011;2304;47.606;12.186;2022-12-15T21:54:48;69.23;;;34.03;;
4583;SDS011;2304;47.606;12.186;2022-12-15T21:59:49;63.43;;;32.47;;
4583;SDS011;2304;47.606;12.186;2022-12-15T22:04:51;69.80;;;31.60;;
4583;SDS011;2304;47.606;12.186;2022-12-15T22:09:54;108.90;;;46.97;;
4583;SDS011;2304;47.606;12.186;2022-12-15T22:14:57;77.90;;;35.30;;
4583;SDS011;2304;47.606;12.186;2022-12-15T22:19:59;66.17;;;33.97;;
4583;SDS011;2304;47.606;12.186;2022-12-15T22:25:02;64.00;;;33.70;;
4583;SDS011;2304;47.606;12.186;2022-12-15T22:30:05;62.97;;;31.57;;
4583;SDS011;2304;47.606;12.186;2022-12-15T22:35:15;60.77;;;30.40;;
4583;SDS011;2304;47.606;12.186;2022-12-15T22:40:20;59.27;;;29.77;;
4583;SDS011;2304;47.606;12.186;2022-12-15T22:45:22;63.20;;;30.70;;
4583;SDS011;2304;47.606;12.186;2022-12-15T22:50:24;64.33;;;30.10;;
4583;SDS011;2304;47.606;12.186;2022-12-15T22:55:28;65.27;;;32.50;;
4583;SDS011;2304;47.606;12.186;2022-12-15T23:00:30;55.93;;;31.40;;
4583;SDS011;2304;47.606;12.186;2022-12-15T23:05:32;68.37;;;33.93;;
4583;SDS011;2304;47.606;12.186;2022-12-15T23:10:35;70.97;;;33.67;;
4583;SDS011;2304;47.606;12.186;2022-12-15T23:15:54;66.00;;;32.97;;
4583;SDS011;2304;47.606;12.186;2022-12-15T23:21:14;62.53;;;30.30;;
4583;SDS011;2304;47.606;12.186;2022-12-15T23:26:18;63.20;;;30.33;;
4583;SDS011;2304;47.606;12.186;2022-12-15T23:31:21;66.30;;;31.20;;
4583;SDS011;2304;47.606;12.186;2022-12-15T23:36:23;63.97;;;31.50;;
4583;SDS011;2304;47.606;12.186;2022-12-15T23:41:26;64.57;;;30.47;;
4583;SDS011;2304;47.606;12.186;2022-12-15T23:46:28;68.77;;;30.57;;
4583;SDS011;2304;47.606;12.186;2022-12-15T23:51:30;68.73;;;32.90;;
4583;SDS011;2304;47.606;12.186;2022-12-15T23:56:33;64.87;;;30.63;;
